Terminal Aerodrome Forecast
Issued by NWS Wakefield, VA

Home | Current Version | Previous Version | Text Only | Print | Product List | Glossary On
Versions: 1 2 3 4 5 6 7 8 9 10 11 12 13 14 15
000
FTUS41 KAKQ 011100 RRA
TAFORF
TAF
KORF 011141Z 0112/0212 21004KT P6SM SCT100 BKN250
     FM011400 18007KT P6SM BKN100
     FM012200 17004KT P6SM OVC100
     FM020300 19012KT P6SM OVC100
     FM020800 18014G24KT 5SM -RA BR BKN025 OVC040=

USA.gov is the U.S. government's official web portal to all federal, state and local government web resources and services.